sensor_id;sensor_type;location;lat;lon;timestamp;P1;durP1;ratioP1;P2;durP2;ratioP2
62151;SDS011;48139;47.474;19.034;2022-09-09T03:36:57;4.70;;;1.75;;
62151;SDS011;48139;47.474;19.034;2022-09-09T03:40:02;4.12;;;1.73;;
62151;SDS011;48139;47.474;19.034;2022-09-09T03:43:04;5.00;;;2.62;;
62151;SDS011;48139;47.474;19.034;2022-09-09T03:49:11;2.92;;;2.10;;
62151;SDS011;48139;47.474;19.034;2022-09-09T03:52:14;3.20;;;2.12;;
62151;SDS011;48139;47.474;19.034;2022-09-09T03:55:23;7.28;;;2.20;;
62151;SDS011;48139;47.474;19.034;2022-09-09T03:58:26;3.05;;;1.60;;
62151;SDS011;48139;47.474;19.034;2022-09-09T04:01:31;3.47;;;2.08;;
62151;SDS011;48139;47.474;19.034;2022-09-09T04:04:34;3.08;;;1.70;;
62151;SDS011;48139;47.474;19.034;2022-09-09T04:07:36;5.80;;;2.30;;
62151;SDS011;48139;47.474;19.034;2022-09-09T04:10:39;5.37;;;2.60;;
62151;SDS011;48139;47.474;19.034;2022-09-09T04:13:42;9.73;;;2.78;;
62151;SDS011;48139;47.474;19.034;2022-09-09T04:16:47;6.03;;;2.87;;
62151;SDS011;48139;47.474;19.034;2022-09-09T04:19:50;6.62;;;4.20;;
62151;SDS011;48139;47.474;19.034;2022-09-09T04:22:53;4.72;;;2.45;;
62151;SDS011;48139;47.474;19.034;2022-09-09T04:25:55;3.10;;;1.90;;
62151;SDS011;48139;47.474;19.034;2022-09-09T04:29:00;3.35;;;1.85;;
62151;SDS011;48139;47.474;19.034;2022-09-09T04:32:03;4.97;;;2.42;;
62151;SDS011;48139;47.474;19.034;2022-09-09T04:35:07;5.68;;;1.95;;
62151;SDS011;48139;47.474;19.034;2022-09-09T04:38:10;3.75;;;2.17;;
62151;SDS011;48139;47.474;19.034;2022-09-09T04:44:15;2.58;;;1.48;;
62151;SDS011;48139;47.474;19.034;2022-09-09T04:47:18;2.70;;;1.60;;
62151;SDS011;48139;47.474;19.034;2022-09-09T04:50:20;4.13;;;1.60;;
62151;SDS011;48139;47.474;19.034;2022-09-09T04:53:30;2.92;;;1.45;;
62151;SDS011;48139;47.474;19.034;2022-09-09T04:56:33;4.62;;;2.17;;
62151;SDS011;48139;47.474;19.034;2022-09-09T04:59:36;2.72;;;1.42;;
62151;SDS011;48139;47.474;19.034;2022-09-09T05:05:42;2.75;;;1.40;;
62151;SDS011;48139;47.474;19.034;2022-09-09T05:08:45;4.18;;;1.60;;
62151;SDS011;48139;47.474;19.034;2022-09-09T05:11:49;3.12;;;1.50;;
62151;SDS011;48139;47.474;19.034;2022-09-09T05:14:53;2.65;;;1.45;;
62151;SDS011;48139;47.474;19.034;2022-09-09T05:17:59;3.37;;;1.37;;
62151;SDS011;48139;47.474;19.034;2022-09-09T05:21:03;2.58;;;1.60;;
62151;SDS011;48139;47.474;19.034;2022-09-09T05:24:06;3.00;;;1.60;;
62151;SDS011;48139;47.474;19.034;2022-09-09T05:27:09;3.67;;;1.60;;
62151;SDS011;48139;47.474;19.034;2022-09-09T05:30:14;5.18;;;1.50;;
62151;SDS011;48139;47.474;19.034;2022-09-09T05:33:17;3.40;;;1.85;;
62151;SDS011;48139;47.474;19.034;2022-09-09T05:36:20;4.68;;;2.03;;
62151;SDS011;48139;47.474;19.034;2022-09-09T05:39:25;4.22;;;1.90;;
62151;SDS011;48139;47.474;19.034;2022-09-09T05:42:31;9.85;;;2.28;;
62151;SDS011;48139;47.474;19.034;2022-09-09T05:45:35;4.57;;;1.75;;
62151;SDS011;48139;47.474;19.034;2022-09-09T05:51:42;2.25;;;1.48;;
62151;SDS011;48139;47.474;19.034;2022-09-09T05:54:45;4.40;;;1.87;;
62151;SDS011;48139;47.474;19.034;2022-09-09T05:57:48;4.23;;;1.70;;
62151;SDS011;48139;47.474;19.034;2022-09-09T06:00:51;3.37;;;1.90;;
62151;SDS011;48139;47.474;19.034;2022-09-09T06:03:54;3.97;;;1.90;;
62151;SDS011;48139;47.474;19.034;2022-09-09T06:06:57;2.35;;;1.33;;
62151;SDS011;48139;47.474;19.034;2022-09-09T06:10:00;3.95;;;1.98;;
62151;SDS011;48139;47.474;19.034;2022-09-09T06:13:06;3.00;;;1.77;;
62151;SDS011;48139;47.474;19.034;2022-09-09T06:16:13;4.57;;;1.70;;
62151;SDS011;48139;47.474;19.034;2022-09-09T06:19:17;3.33;;;1.87;;
62151;SDS011;48139;47.474;19.034;2022-09-09T06:22:20;4.93;;;2.08;;
62151;SDS011;48139;47.474;19.034;2022-09-09T06:25:22;5.50;;;2.05;;
62151;SDS011;48139;47.474;19.034;2022-09-09T06:28:27;3.45;;;1.50;;
62151;SDS011;48139;47.474;19.034;2022-09-09T06:31:30;7.57;;;2.00;;
62151;SDS011;48139;47.474;19.034;2022-09-09T06:34:38;5.62;;;3.10;;
62151;SDS011;48139;47.474;19.034;2022-09-09T06:40:53;2.47;;;1.12;;
62151;SDS011;48139;47.474;19.034;2022-09-09T06:44:00;3.35;;;1.55;;
62151;SDS011;48139;47.474;19.034;2022-09-09T06:47:04;2.42;;;1.40;;
62151;SDS011;48139;47.474;19.034;2022-09-09T06:50:07;2.78;;;1.50;;
62151;SDS011;48139;47.474;19.034;2022-09-09T06:59:19;3.17;;;1.65;;
62151;SDS011;48139;47.474;19.034;2022-09-09T07:02:22;4.30;;;1.62;;
62151;SDS011;48139;47.474;19.034;2022-09-09T07:05:26;3.53;;;1.45;;
62151;SDS011;48139;47.474;19.034;2022-09-09T07:08:28;2.60;;;1.58;;
62151;SDS011;48139;47.474;19.034;2022-09-09T07:11:36;4.03;;;2.15;;
62151;SDS011;48139;47.474;19.034;2022-09-09T07:14:40;3.28;;;1.70;;
62151;SDS011;48139;47.474;19.034;2022-09-09T07:17:45;5.72;;;1.58;;
62151;SDS011;48139;47.474;19.034;2022-09-09T07:20:53;2.47;;;1.33;;
62151;SDS011;48139;47.474;19.034;2022-09-09T07:23:57;2.87;;;1.33;;
62151;SDS011;48139;47.474;19.034;2022-09-09T07:27:01;2.12;;;1.48;;
62151;SDS011;48139;47.474;19.034;2022-09-09T07:30:06;4.05;;;1.95;;
62151;SDS011;48139;47.474;19.034;2022-09-09T07:33:09;3.65;;;1.60;;
62151;SDS011;48139;47.474;19.034;2022-09-09T07:39:17;3.10;;;1.45;;
62151;SDS011;48139;47.474;19.034;2022-09-09T07:42:20;3.20;;;1.75;;
62151;SDS011;48139;47.474;19.034;2022-09-09T07:45:24;2.55;;;1.50;;
62151;SDS011;48139;47.474;19.034;2022-09-09T07:48:27;2.95;;;1.27;;
62151;SDS011;48139;47.474;19.034;2022-09-09T07:51:35;4.43;;;1.65;;
62151;SDS011;48139;47.474;19.034;2022-09-09T07:54:39;3.85;;;1.50;;
62151;SDS011;48139;47.474;19.034;2022-09-09T07:57:42;4.28;;;1.85;;
62151;SDS011;48139;47.474;19.034;2022-09-09T08:00:45;2.47;;;1.60;;
62151;SDS011;48139;47.474;19.034;2022-09-09T08:03:55;2.72;;;1.40;;
62151;SDS011;48139;47.474;19.034;2022-09-09T08:07:03;1.80;;;1.20;;
62151;SDS011;48139;47.474;19.034;2022-09-09T08:10:07;2.58;;;1.37;;
62151;SDS011;48139;47.474;19.034;2022-09-09T08:16:21;2.90;;;1.50;;
62151;SDS011;48139;47.474;19.034;2022-09-09T08:19:26;5.50;;;1.75;;
62151;SDS011;48139;47.474;19.034;2022-09-09T08:22:32;2.85;;;1.37;;
62151;SDS011;48139;47.474;19.034;2022-09-09T08:25:36;2.30;;;1.45;;
62151;SDS011;48139;47.474;19.034;2022-09-09T08:28:39;5.45;;;1.45;;
62151;SDS011;48139;47.474;19.034;2022-09-09T08:31:49;1.52;;;1.20;;
62151;SDS011;48139;47.474;19.034;2022-09-09T08:34:54;1.70;;;1.30;;
62151;SDS011;48139;47.474;19.034;2022-09-09T08:38:02;2.83;;;1.10;;
62151;SDS011;48139;47.474;19.034;2022-09-09T08:51:33;8.55;;;1.40;;
62151;SDS011;48139;47.474;19.034;2022-09-09T08:54:37;2.90;;;2.03;;
62151;SDS011;48139;47.474;19.034;2022-09-09T08:57:55;3.50;;;1.15;;
62151;SDS011;48139;47.474;19.034;2022-09-09T09:10:51;2.20;;;1.00;;
62151;SDS011;48139;47.474;19.034;2022-09-09T09:14:01;5.15;;;1.33;;
62151;SDS011;48139;47.474;19.034;2022-09-09T09:24:26;2.70;;;1.20;;
62151;SDS011;48139;47.474;19.034;2022-09-09T09:28:02;0.80;;;0.80;;
62151;SDS011;48139;47.474;19.034;2022-09-09T09:31:11;3.30;;;1.05;;
62151;SDS011;48139;47.474;19.034;2022-09-09T09:34:22;5.65;;;1.20;;
62151;SDS011;48139;47.474;19.034;2022-09-09T09:37:28;1.50;;;0.90;;
62151;SDS011;48139;47.474;19.034;2022-09-09T09:40:47;1.73;;;0.90;;
62151;SDS011;48139;47.474;19.034;2022-09-09T09:43:53;1.30;;;0.88;;
62151;SDS011;48139;47.474;19.034;2022-09-09T09:50:16;2.83;;;1.23;;
62151;SDS011;48139;47.474;19.034;2022-09-09T09:53:25;1.80;;;1.00;;
62151;SDS011;48139;47.474;19.034;2022-09-09T09:56:32;1.55;;;0.77;;
62151;SDS011;48139;47.474;19.034;2022-09-09T09:59:36;1.10;;;0.80;;
62151;SDS011;48139;47.474;19.034;2022-09-09T10:02:43;3.37;;;1.10;;
62151;SDS011;48139;47.474;19.034;2022-09-09T10:05:48;1.20;;;0.80;;
62151;SDS011;48139;47.474;19.034;2022-09-09T10:12:00;1.15;;;0.80;;
62151;SDS011;48139;47.474;19.034;2022-09-09T10:18:36;1.15;;;0.88;;
62151;SDS011;48139;47.474;19.034;2022-09-09T10:32:06;1.35;;;1.00;;
62151;SDS011;48139;47.474;19.034;2022-09-09T10:35:29;4.60;;;1.10;;
62151;SDS011;48139;47.474;19.034;2022-09-09T10:38:58;2.30;;;0.98;;
62151;SDS011;48139;47.474;19.034;2022-09-09T10:42:06;0.93;;;0.70;;
62151;SDS011;48139;47.474;19.034;2022-09-09T10:45:18;1.67;;;0.90;;
62151;SDS011;48139;47.474;19.034;2022-09-09T10:51:57;1.67;;;0.80;;
62151;SDS011;48139;47.474;19.034;2022-09-09T10:55:13;1.42;;;0.77;;
62151;SDS011;48139;47.474;19.034;2022-09-09T10:58:23;1.87;;;0.90;;
62151;SDS011;48139;47.474;19.034;2022-09-09T11:01:43;4.43;;;1.43;;
62151;SDS011;48139;47.474;19.034;2022-09-09T11:08:13;3.97;;;1.20;;
62151;SDS011;48139;47.474;19.034;2022-09-09T11:11:29;1.67;;;1.27;;
62151;SDS011;48139;47.474;19.034;2022-09-09T11:14:43;1.90;;;1.00;;
62151;SDS011;48139;47.474;19.034;2022-09-09T11:17:58;3.22;;;1.05;;
62151;SDS011;48139;47.474;19.034;2022-09-09T11:21:12;3.90;;;1.08;;
62151;SDS011;48139;47.474;19.034;2022-09-09T11:24:41;1.02;;;0.80;;
62151;SDS011;48139;47.474;19.034;2022-09-09T11:34:56;2.47;;;1.17;;
62151;SDS011;48139;47.474;19.034;2022-09-09T11:38:19;1.60;;;1.10;;
62151;SDS011;48139;47.474;19.034;2022-09-09T11:41:33;0.85;;;0.70;;
62151;SDS011;48139;47.474;19.034;2022-09-09T11:44:38;3.17;;;1.10;;
62151;SDS011;48139;47.474;19.034;2022-09-09T11:47:50;4.68;;;1.60;;
62151;SDS011;48139;47.474;19.034;2022-09-09T11:50:59;2.17;;;0.93;;
62151;SDS011;48139;47.474;19.034;2022-09-09T11:57:32;1.67;;;0.90;;
62151;SDS011;48139;47.474;19.034;2022-09-09T12:00:39;1.92;;;0.98;;
62151;SDS011;48139;47.474;19.034;2022-09-09T12:06:59;1.87;;;1.30;;
62151;SDS011;48139;47.474;19.034;2022-09-09T12:10:19;1.92;;;1.08;;
62151;SDS011;48139;47.474;19.034;2022-09-09T12:13:23;0.95;;;0.90;;
62151;SDS011;48139;47.474;19.034;2022-09-09T12:16:34;3.67;;;1.10;;
62151;SDS011;48139;47.474;19.034;2022-09-09T12:19:40;2.20;;;1.02;;
62151;SDS011;48139;47.474;19.034;2022-09-09T12:23:03;2.20;;;1.00;;
62151;SDS011;48139;47.474;19.034;2022-09-09T12:26:47;2.62;;;1.67;;
62151;SDS011;48139;47.474;19.034;2022-09-09T12:30:07;2.00;;;1.13;;
62151;SDS011;48139;47.474;19.034;2022-09-09T12:33:16;1.35;;;1.08;;
62151;SDS011;48139;47.474;19.034;2022-09-09T12:36:24;2.85;;;1.50;;
62151;SDS011;48139;47.474;19.034;2022-09-09T12:39:33;3.00;;;1.15;;
62151;SDS011;48139;47.474;19.034;2022-09-09T12:42:40;3.05;;;1.20;;
62151;SDS011;48139;47.474;19.034;2022-09-09T12:48:45;4.30;;;1.30;;
62151;SDS011;48139;47.474;19.034;2022-09-09T12:51:47;2.08;;;1.20;;
62151;SDS011;48139;47.474;19.034;2022-09-09T12:54:51;3.72;;;1.25;;
62151;SDS011;48139;47.474;19.034;2022-09-09T12:57:55;3.50;;;1.50;;
62151;SDS011;48139;47.474;19.034;2022-09-09T13:01:02;1.10;;;0.85;;
62151;SDS011;48139;47.474;19.034;2022-09-09T13:04:19;1.33;;;1.05;;
62151;SDS011;48139;47.474;19.034;2022-09-09T13:07:24;2.40;;;1.23;;
62151;SDS011;48139;47.474;19.034;2022-09-09T13:10:28;2.37;;;1.20;;
62151;SDS011;48139;47.474;19.034;2022-09-09T13:13:49;1.73;;;1.05;;
62151;SDS011;48139;47.474;19.034;2022-09-09T13:17:00;2.08;;;1.23;;
62151;SDS011;48139;47.474;19.034;2022-09-09T13:20:05;2.30;;;1.17;;
62151;SDS011;48139;47.474;19.034;2022-09-09T13:23:08;2.28;;;1.10;;
62151;SDS011;48139;47.474;19.034;2022-09-09T13:26:21;2.65;;;1.00;;
62151;SDS011;48139;47.474;19.034;2022-09-09T13:29:29;2.92;;;1.15;;
62151;SDS011;48139;47.474;19.034;2022-09-09T13:32:33;3.85;;;1.27;;
62151;SDS011;48139;47.474;19.034;2022-09-09T13:35:36;4.82;;;1.75;;
62151;SDS011;48139;47.474;19.034;2022-09-09T13:38:53;4.97;;;1.20;;
62151;SDS011;48139;47.474;19.034;2022-09-09T13:41:58;2.12;;;1.00;;
62151;SDS011;48139;47.474;19.034;2022-09-09T13:45:01;3.08;;;1.60;;
62151;SDS011;48139;47.474;19.034;2022-09-09T13:48:09;4.55;;;1.73;;
62151;SDS011;48139;47.474;19.034;2022-09-09T13:54:42;1.62;;;0.80;;
62151;SDS011;48139;47.474;19.034;2022-09-09T13:57:51;5.82;;;1.10;;
62151;SDS011;48139;47.474;19.034;2022-09-09T14:00:58;2.85;;;1.37;;
62151;SDS011;48139;47.474;19.034;2022-09-09T14:07:03;4.20;;;1.40;;
62151;SDS011;48139;47.474;19.034;2022-09-09T14:10:06;2.65;;;1.83;;
62151;SDS011;48139;47.474;19.034;2022-09-09T14:13:09;4.60;;;1.52;;
62151;SDS011;48139;47.474;19.034;2022-09-09T14:19:14;3.70;;;1.12;;
62151;SDS011;48139;47.474;19.034;2022-09-09T14:25:19;1.65;;;0.90;;
62151;SDS011;48139;47.474;19.034;2022-09-09T14:31:44;6.68;;;1.30;;
62151;SDS011;48139;47.474;19.034;2022-09-09T14:37:51;1.85;;;1.00;;
62151;SDS011;48139;47.474;19.034;2022-09-09T14:40:54;3.92;;;1.05;;
62151;SDS011;48139;47.474;19.034;2022-09-09T14:43:56;3.20;;;1.12;;
62151;SDS011;48139;47.474;19.034;2022-09-09T14:46:59;2.58;;;0.90;;
62151;SDS011;48139;47.474;19.034;2022-09-09T14:50:02;1.25;;;0.90;;
62151;SDS011;48139;47.474;19.034;2022-09-09T14:53:07;2.47;;;1.40;;
62151;SDS011;48139;47.474;19.034;2022-09-09T14:59:25;2.78;;;0.82;;
62151;SDS011;48139;47.474;19.034;2022-09-09T15:02:28;1.42;;;0.98;;
62151;SDS011;48139;47.474;19.034;2022-09-09T15:05:32;1.77;;;0.90;;
62151;SDS011;48139;47.474;19.034;2022-09-09T15:08:37;2.58;;;1.05;;
62151;SDS011;48139;47.474;19.034;2022-09-09T15:11:44;1.00;;;0.80;;
62151;SDS011;48139;47.474;19.034;2022-09-09T15:14:47;2.80;;;1.05;;
62151;SDS011;48139;47.474;19.034;2022-09-09T15:17:50;1.30;;;1.05;;
62151;SDS011;48139;47.474;19.034;2022-09-09T15:20:52;2.87;;;0.90;;
62151;SDS011;48139;47.474;19.034;2022-09-09T15:23:55;2.90;;;2.28;;
62151;SDS011;48139;47.474;19.034;2022-09-09T15:26:59;3.00;;;1.00;;
62151;SDS011;48139;47.474;19.034;2022-09-09T15:30:03;2.35;;;1.42;;
62151;SDS011;48139;47.474;19.034;2022-09-09T15:33:07;4.15;;;1.40;;
62151;SDS011;48139;47.474;19.034;2022-09-09T15:36:25;4.15;;;1.23;;
62151;SDS011;48139;47.474;19.034;2022-09-09T15:39:30;2.00;;;0.95;;
